Time;durP1;ratioP1;P1;durP2;ratioP2;P2;SDS_P1;SDS_P2;PMS_P1;PMS_P2;Temp;Humidity;BMP_temperature;BMP_pressure;BME280_temperature;BME280_humidity;BME280_pressure;Samples;Min_cycle;Max_cycle;Signal;HPM_P1;HPM_P2
2021/04/13 00:01:35;;;;;;;44.00;21.87;;;-0.80;99.90;;;;;;4992202;28;20304;-58
2021/04/13 00:04:14;;;;;;;41.53;20.37;;;-0.80;99.90;;;;;;4993631;28;20034;-57
2021/04/13 00:06:42;;;;;;;43.23;20.90;;;-0.80;99.90;;;;;;4991453;28;20034;-58
2021/04/13 00:09:26;;;;;;;43.40;21.10;;;-0.80;99.90;;;;;;4986994;28;20403;-58
2021/04/13 00:12:14;;;;;;;44.97;21.30;;;-0.80;99.90;;;;;;5002082;28;20077;-57
2021/04/13 00:14:45;;;;;;;40.70;21.40;;;-0.80;99.90;;;;;;4998323;28;20100;-57
2021/04/13 00:17:14;;;;;;;39.73;21.13;;;-0.90;99.90;;;;;;5008736;28;20574;-54
2021/04/13 00:19:45;;;;;;;39.03;19.80;;;-0.90;99.90;;;;;;4993741;28;20081;-58
2021/04/13 00:22:12;;;;;;;42.87;22.37;;;-0.90;99.90;;;;;;4994630;28;20111;-59
2021/04/13 00:24:37;;;;;;;43.93;22.73;;;-0.90;99.90;;;;;;5004302;28;20057;-58
2021/04/13 00:27:03;;;;;;;47.43;24.37;;;-0.90;99.90;;;;;;4996135;28;20035;-57
2021/04/13 00:29:31;;;;;;;54.57;26.70;;;-0.90;99.90;;;;;;5005745;28;20161;-58
2021/04/13 00:32:00;;;;;;;61.67;28.63;;;-0.90;99.90;;;;;;4995342;28;20097;-57
2021/04/13 00:34:39;;;;;;;55.90;25.43;;;-0.90;99.90;;;;;;5001101;28;20026;-57
2021/04/13 00:37:20;;;;;;;60.50;27.87;;;-1.00;99.90;;;;;;4995312;28;20031;-57
2021/04/13 00:39:47;;;;;;;60.50;27.93;;;-0.90;99.90;;;;;;4986499;28;20118;-56
2021/04/13 00:42:15;;;;;;;63.90;29.10;;;-0.90;99.90;;;;;;4993785;28;20538;-58
2021/04/13 00:44:48;;;;;;;71.70;30.80;;;-0.90;99.90;;;;;;4993945;28;20434;-57
2021/04/13 00:47:25;;;;;;;67.47;29.90;;;-0.90;99.90;;;;;;4997651;28;20025;-59
2021/04/13 00:49:55;;;;;;;63.60;28.93;;;-0.90;99.90;;;;;;4993782;28;20026;-58
2021/04/13 00:52:29;;;;;;;73.03;32.70;;;-1.00;99.90;;;;;;5001929;28;20029;-59
2021/04/13 00:54:58;;;;;;;55.33;24.80;;;-0.90;99.90;;;;;;4995516;28;20072;-58
2021/04/13 00:57:41;;;;;;;77.30;32.90;;;-1.00;99.90;;;;;;4998916;28;20034;-58
2021/04/13 01:00:08;;;;;;;59.90;27.17;;;-1.00;99.90;;;;;;5001191;28;20023;-58
2021/04/13 01:02:34;;;;;;;45.43;22.40;;;-1.00;99.90;;;;;;4996505;28;20034;-60
2021/04/13 01:05:17;;;;;;;42.30;21.00;;;-1.00;99.90;;;;;;4995444;28;20029;-58
2021/04/13 01:07:47;;;;;;;43.73;20.73;;;-1.10;99.90;;;;;;4999684;28;20439;-57
2021/04/13 01:10:23;;;;;;;36.77;18.50;;;-1.10;99.90;;;;;;4984835;28;20467;-58
2021/04/13 01:12:53;;;;;;;33.80;19.13;;;-1.10;99.90;;;;;;4999167;28;20022;-58
2021/04/13 01:15:19;;;;;;;36.27;18.57;;;-1.20;99.90;;;;;;4995694;28;20030;-59
2021/04/13 01:17:45;;;;;;;118.67;22.00;;;-1.20;99.90;;;;;;4989033;28;20096;-59
2021/04/13 01:20:13;;;;;;;154.37;21.50;;;-1.20;99.90;;;;;;4992647;28;20040;-60
2021/04/13 01:25:25;;;;;;;101.93;16.10;;;-1.30;99.90;;;;;;4990185;28;20057;-58
2021/04/13 01:27:56;;;;;;;71.07;13.47;;;-1.30;99.90;;;;;;4994656;28;20045;-59
2021/04/13 01:30:34;;;;;;;191.50;18.50;;;-1.30;99.90;;;;;;4987110;28;20034;-56
2021/04/13 01:33:10;;;;;;;50.87;14.50;;;-1.30;99.90;;;;;;4995862;28;20484;-58
2021/04/13 01:35:35;;;;;;;96.60;16.80;;;-1.40;99.90;;;;;;4995265;28;20512;-57
2021/04/13 01:38:06;;;;;;;44.00;15.20;;;-1.40;99.90;;;;;;4997021;28;20030;-58
2021/04/13 01:41:29;;;;;;;39.93;14.67;;;-1.40;99.90;;;;;;4993719;28;20113;-57
2021/04/13 01:43:26;;;;;;;;;;;-1.40;99.90;;;;;;4978524;28;20057;-59
2021/04/13 01:45:52;;;;;;;32.63;16.10;;;-1.50;99.90;;;;;;4992581;28;19910;-58
2021/04/13 01:48:19;;;;;;;28.77;15.67;;;-1.50;99.90;;;;;;5000599;28;20030;-58
2021/04/13 01:50:57;;;;;;;36.63;18.47;;;-1.60;99.90;;;;;;4996272;28;20030;-59
2021/04/13 01:53:25;;;;;;;35.13;18.30;;;-1.60;99.90;;;;;;4998245;28;20547;-58
2021/04/13 01:55:53;;;;;;;45.17;21.07;;;-1.70;99.90;;;;;;4994895;28;20069;-58
2021/04/13 01:58:43;;;;;;;40.17;19.13;;;-1.70;99.90;;;;;;4998284;28;20023;-58
2021/04/13 02:01:30;;;;;;;35.23;19.40;;;-1.70;99.90;;;;;;5004144;28;20026;-56
2021/04/13 02:04:06;;;;;;;32.73;17.47;;;-1.70;99.90;;;;;;4961085;28;20722;-60
2021/04/13 02:06:54;;;;;;;32.80;18.03;;;-1.70;99.90;;;;;;4994758;28;20037;-57
2021/04/13 02:09:41;;;;;;;28.60;15.00;;;-1.80;99.90;;;;;;4973614;28;20034;-56
2021/04/13 02:12:26;;;;;;;57.37;15.40;;;-1.80;99.90;;;;;;4999091;28;20014;-58
2021/04/13 02:15:24;;;;;;;30.30;15.60;;;-1.80;99.90;;;;;;4994821;28;20038;-58
2021/04/13 02:17:59;;;;;;;76.80;16.77;;;-1.80;99.90;;;;;;4995004;28;20041;-56
2021/04/13 02:20:32;;;;;;;30.47;16.27;;;-1.90;99.90;;;;;;4989380;28;20041;-59
2021/04/13 02:23:00;;;;;;;37.35;18.42;;;-1.90;99.90;;;;;;4989876;28;20141;-58
2021/04/13 02:25:30;;;;;;;30.27;16.00;;;-1.90;99.90;;;;;;4988328;28;20582;-59
2021/04/13 02:27:58;;;;;;;27.73;14.77;;;-2.00;99.90;;;;;;4992717;28;20412;-57
2021/04/13 02:30:35;;;;;;;29.80;16.33;;;-2.00;99.90;;;;;;5000235;28;20039;-58
2021/04/13 02:33:26;;;;;;;30.50;15.53;;;-2.00;99.90;;;;;;4997776;28;20026;-58
2021/04/13 02:35:52;;;;;;;27.53;14.37;;;-2.00;99.90;;;;;;4989510;28;20038;-59
2021/04/13 02:38:27;;;;;;;335.00;28.47;;;-2.00;99.90;;;;;;5002868;28;20387;-59
2021/04/13 02:41:03;;;;;;;78.73;16.57;;;-2.00;99.90;;;;;;4994782;28;20038;-58
2021/04/13 02:43:42;;;;;;;813.83;49.73;;;-2.00;99.90;;;;;;5003323;28;20076;-58
2021/04/13 02:46:25;;;;;;;319.10;27.23;;;-2.00;99.90;;;;;;4988550;28;20027;-59
2021/04/13 02:49:04;;;;;;;416.47;31.53;;;-1.90;99.90;;;;;;4992329;28;20648;-57
2021/04/13 02:51:32;;;;;;;436.23;31.90;;;-1.90;99.90;;;;;;4992300;28;20023;-58
2021/04/13 02:53:59;;;;;;;482.60;32.70;;;-1.80;99.90;;;;;;5004074;28;20038;-58
2021/04/13 02:56:31;;;;;;;413.00;29.50;;;-1.80;99.90;;;;;;4994995;28;20073;-57
2021/04/13 02:59:09;;;;;;;475.00;32.70;;;-1.80;99.90;;;;;;5006665;28;20048;-57
2021/04/13 03:01:36;;;;;;;326.90;27.77;;;-1.80;99.90;;;;;;4995383;28;20497;-58
2021/04/13 03:04:08;;;;;;;383.77;25.17;;;-1.80;99.90;;;;;;4977347;28;20412;-57
2021/04/13 03:06:50;;;;;;;289.53;22.77;;;-1.80;99.90;;;;;;4982757;28;20031;-58
2021/04/13 03:09:18;;;;;;;352.87;26.27;;;-1.80;99.90;;;;;;4973865;28;20097;-57
2021/04/13 03:11:59;;;;;;;171.03;18.23;;;-1.80;99.90;;;;;;4991913;28;20072;-58
2021/04/13 03:14:27;;;;;;;248.83;20.63;;;-1.80;99.90;;;;;;4997725;28;20109;-59
2021/04/13 03:16:57;;;;;;;114.10;16.23;;;-1.80;99.90;;;;;;4997547;28;20140;-57
2021/04/13 03:19:27;;;;;;;509.33;29.80;;;-1.90;99.90;;;;;;5003786;28;20025;-59
2021/04/13 03:22:00;;;;;;;144.27;18.33;;;-1.90;99.90;;;;;;4998383;28;20036;-57
2021/04/13 03:24:30;;;;;;;107.53;15.98;;;-2.00;99.90;;;;;;5003482;28;20397;-58
2021/04/13 03:26:58;;;;;;;168.53;18.70;;;-2.00;99.90;;;;;;4996243;28;20026;-58
2021/04/13 03:29:46;;;;;;;314.40;24.70;;;-2.10;99.90;;;;;;4998833;28;20561;-57
2021/04/13 03:32:14;;;;;;;306.77;23.73;;;-2.00;99.90;;;;;;4999153;28;20372;-58
2021/04/13 03:34:41;;;;;;;123.20;17.70;;;-2.00;99.90;;;;;;4993782;28;20504;-58
2021/04/13 03:37:08;;;;;;;99.03;15.83;;;-2.00;99.90;;;;;;4994926;28;20045;-58
2021/04/13 03:39:38;;;;;;;173.33;21.43;;;-2.00;99.90;;;;;;4997147;28;20022;-59
2021/04/13 03:42:05;;;;;;;95.87;17.00;;;-2.10;99.90;;;;;;4995038;28;20042;-58
2021/04/13 03:44:36;;;;;;;277.13;22.67;;;-2.10;99.90;;;;;;5002626;28;20042;-58
2021/04/13 03:47:07;;;;;;;223.60;19.60;;;-2.10;99.90;;;;;;5002936;28;20030;-57
2021/04/13 03:49:37;;;;;;;211.87;20.83;;;-2.10;99.90;;;;;;4998285;28;20119;-58
2021/04/13 03:52:08;;;;;;;83.87;15.93;;;-2.10;99.90;;;;;;4997713;28;20050;-56
2021/04/13 03:54:37;;;;;;;170.50;18.07;;;-2.10;99.90;;;;;;5002642;28;20030;-59
2021/04/13 03:57:04;;;;;;;103.77;18.37;;;-2.20;99.90;;;;;;4994315;28;20528;-58
2021/04/13 03:59:36;;;;;;;119.40;18.80;;;-2.20;99.90;;;;;;5000750;28;20072;-57
2021/04/13 04:02:05;;;;;;;68.30;15.87;;;-2.30;99.90;;;;;;4994862;28;20068;-58
2021/04/13 04:04:37;;;;;;;93.37;16.73;;;-2.30;99.90;;;;;;4991024;28;20030;-57
2021/04/13 04:07:26;;;;;;;34.57;15.17;;;-2.30;99.90;;;;;;4993088;28;20096;-58
2021/04/13 04:09:52;;;;;;;26.70;14.10;;;-2.40;99.90;;;;;;4985229;28;20042;-58
2021/04/13 04:12:27;;;;;;;28.07;14.17;;;-2.40;99.90;;;;;;4999703;28;20018;-58
2021/04/13 04:14:57;;;;;;;27.57;14.43;;;-2.40;99.90;;;;;;4985002;28;20026;-58
2021/04/13 04:17:24;;;;;;;26.70;13.13;;;-2.40;99.90;;;;;;4987783;28;20050;-59
2021/04/13 04:19:54;;;;;;;22.47;12.07;;;-2.40;99.90;;;;;;4991720;28;20388;-58
2021/04/13 04:22:22;;;;;;;22.10;11.97;;;-2.50;99.90;;;;;;5002866;28;20034;-58
2021/04/13 04:24:47;;;;;;;24.93;12.87;;;-2.50;99.90;;;;;;5003356;28;20410;-58
2021/04/13 04:27:13;;;;;;;22.47;13.37;;;-2.50;99.90;;;;;;4998974;28;20026;-56
2021/04/13 04:29:44;;;;;;;23.93;14.00;;;-2.50;99.90;;;;;;4996439;28;20023;-56
2021/04/13 04:32:30;;;;;;;73.50;16.03;;;-2.50;99.90;;;;;;5000478;28;20034;-57
2021/04/13 04:34:57;;;;;;;92.33;16.63;;;-2.50;99.90;;;;;;4984233;28;20044;-57
2021/04/13 04:37:35;;;;;;;185.77;18.43;;;-2.50;99.90;;;;;;4990194;28;20041;-58
2021/04/13 04:40:16;;;;;;;209.03;22.40;;;-2.50;99.90;;;;;;4998159;28;20037;-57
2021/04/13 04:42:59;;;;;;;231.43;21.10;;;-2.50;99.90;;;;;;4999187;28;20499;-57
2021/04/13 04:45:34;;;;;;;76.63;18.50;;;-2.50;99.90;;;;;;4989538;28;20058;-54
2021/04/13 04:48:17;;;;;;;98.63;18.23;;;-2.50;99.90;;;;;;5000664;28;20034;-58
2021/04/13 04:50:43;;;;;;;158.60;19.57;;;-2.50;99.90;;;;;;4992761;28;20384;-58
2021/04/13 04:53:08;;;;;;;461.03;32.93;;;-2.40;99.90;;;;;;4995960;28;20036;-56
2021/04/13 04:55:34;;;;;;;219.87;19.40;;;-2.30;99.90;;;;;;4999148;28;20349;-57
2021/04/13 04:57:59;;;;;;;259.83;21.37;;;-2.30;99.90;;;;;;4992809;28;20053;-58
2021/04/13 05:00:25;;;;;;;209.83;22.30;;;-2.30;99.90;;;;;;4986699;28;20707;-57
2021/04/13 05:02:51;;;;;;;310.27;24.87;;;-2.30;99.90;;;;;;4990248;28;20485;-59
2021/04/13 05:05:16;;;;;;;127.73;17.37;;;-2.30;99.90;;;;;;4989910;28;20039;-55
2021/04/13 05:07:42;;;;;;;95.10;17.03;;;-2.30;99.90;;;;;;4993829;28;20033;-58
2021/04/13 05:10:08;;;;;;;42.73;15.47;;;-2.30;99.90;;;;;;4982861;28;20037;-57
2021/04/13 05:12:33;;;;;;;77.27;16.17;;;-2.20;99.90;;;;;;4995872;28;20667;-58
2021/04/13 05:14:59;;;;;;;31.17;14.07;;;-2.10;99.90;;;;;;4995008;28;20035;-56
2021/04/13 05:17:25;;;;;;;91.83;17.80;;;-2.10;99.90;;;;;;4995151;28;20031;-57
2021/04/13 05:19:50;;;;;;;33.80;15.17;;;-2.00;99.90;;;;;;4999966;28;20060;-59
2021/04/13 05:22:16;;;;;;;64.90;15.60;;;-1.90;99.90;;;;;;4996408;28;20038;-59
2021/04/13 05:24:42;;;;;;;30.27;16.13;;;-1.80;99.90;;;;;;5002105;28;20028;-58
2021/04/13 05:27:09;;;;;;;28.13;14.93;;;-1.70;99.90;;;;;;4992477;28;20022;-59
2021/04/13 05:29:34;;;;;;;27.67;14.37;;;-1.60;99.90;;;;;;5000659;28;20026;-59
2021/04/13 05:32:00;;;;;;;26.20;12.73;;;-1.50;99.90;;;;;;5002569;28;20376;-59
2021/04/13 05:34:26;;;;;;;36.73;19.00;;;-1.40;99.90;;;;;;4991071;28;20124;-59
2021/04/13 05:36:54;;;;;;;39.63;19.97;;;-1.30;99.90;;;;;;4991799;28;20034;-57
2021/04/13 05:39:20;;;;;;;63.07;20.53;;;-1.20;99.90;;;;;;4991867;28;20046;-58
2021/04/13 05:41:48;;;;;;;42.57;16.80;;;-1.10;99.90;;;;;;4997633;28;20025;-59
2021/04/13 05:44:15;;;;;;;33.63;17.73;;;-0.90;99.90;;;;;;4988030;28;20083;-59
2021/04/13 05:46:41;;;;;;;29.10;16.17;;;-0.90;99.90;;;;;;4997592;28;20056;-57
2021/04/13 05:49:07;;;;;;;34.73;16.50;;;-0.80;99.90;;;;;;4999666;28;20041;-57
2021/04/13 05:51:33;;;;;;;33.00;18.50;;;-0.80;99.90;;;;;;4990591;28;20026;-59
2021/04/13 05:53:58;;;;;;;41.27;19.50;;;-0.90;99.90;;;;;;5004474;28;20018;-57
2021/04/13 05:56:28;;;;;;;26.07;14.07;;;-0.80;99.90;;;;;;4989265;28;20302;-58
2021/04/13 05:58:55;;;;;;;25.17;14.80;;;-0.60;99.90;;;;;;4998687;28;20105;-58
2021/04/13 06:01:24;;;;;;;39.30;17.63;;;-0.40;99.90;;;;;;4991783;28;20037;-58
2021/04/13 06:03:49;;;;;;;48.03;15.30;;;-0.20;99.90;;;;;;4998447;28;20034;-58
2021/04/13 06:06:15;;;;;;;122.30;18.20;;;0.00;99.90;;;;;;4997936;28;20659;-59
2021/04/13 06:08:41;;;;;;;114.45;18.35;;;0.00;99.90;;;;;;4998327;28;20044;-58
2021/04/13 06:11:09;;;;;;;103.07;18.35;;;0.00;99.90;;;;;;4981890;28;20128;-57
2021/04/13 06:13:35;;;;;;;60.47;16.98;;;0.20;99.90;;;;;;4993168;28;20029;-58
2021/04/13 06:16:01;;;;;;;40.22;15.75;;;0.50;99.90;;;;;;4993513;28;20399;-57
2021/04/13 06:18:26;;;;;;;71.15;15.35;;;0.70;99.90;;;;;;4991221;28;20034;-59
2021/04/13 06:20:52;;;;;;;32.88;14.32;;;0.90;99.90;;;;;;4994143;28;20459;-57
2021/04/13 06:23:19;;;;;;;80.35;16.13;;;1.20;99.90;;;;;;4997963;28;20447;-59
2021/04/13 06:25:44;;;;;;;51.03;16.13;;;1.30;99.90;;;;;;4997455;28;20022;-59
2021/04/13 06:28:10;;;;;;;32.20;15.43;;;1.30;99.90;;;;;;4997784;28;20153;-59
2021/04/13 06:30:38;;;;;;;33.30;16.50;;;0.90;99.90;;;;;;4988314;28;20364;-58
2021/04/13 06:33:04;;;;;;;30.67;16.85;;;0.80;99.90;;;;;;4998605;28;20050;-59
2021/04/13 06:35:30;;;;;;;28.15;16.55;;;0.90;99.90;;;;;;4992591;28;20035;-57
2021/04/13 06:37:58;;;;;;;23.13;15.00;;;0.90;99.90;;;;;;4999011;28;20456;-59
2021/04/13 06:40:32;;;;;;;24.58;15.23;;;1.10;99.90;;;;;;4996543;28;20487;-59
2021/04/13 06:43:13;;;;;;;25.20;15.27;;;1.40;99.90;;;;;;4998063;28;20037;-54
2021/04/13 06:45:58;;;;;;;26.48;16.63;;;1.60;99.90;;;;;;4988377;28;20030;-58
2021/04/13 06:48:49;;;;;;;32.55;18.40;;;1.60;99.90;;;;;;4984789;28;20041;-57
2021/04/13 06:51:26;;;;;;;37.40;17.33;;;1.40;99.90;;;;;;4986183;28;20030;-59
2021/04/13 06:54:07;;;;;;;30.08;17.80;;;1.20;99.90;;;;;;4986357;28;20548;-58
2021/04/13 06:56:44;;;;;;;30.20;19.45;;;1.10;99.90;;;;;;4988709;28;20518;-58
2021/04/13 06:59:57;;;;;;;29.98;18.38;;;1.20;99.90;;;;;;4999174;28;20065;-61
2021/04/13 07:02:44;;;;;;;33.53;18.13;;;1.20;99.90;;;;;;4964791;28;20074;-57
2021/04/13 07:05:19;;;;;;;30.55;18.13;;;1.30;99.90;;;;;;5010763;28;20602;-58
2021/04/13 07:07:44;;;;;;;30.33;17.80;;;1.60;99.90;;;;;;4991183;28;20035;-59
2021/04/13 07:10:31;;;;;;;29.58;18.08;;;1.80;99.90;;;;;;4966021;28;20053;-57
2021/04/13 07:13:17;;;;;;;30.58;19.52;;;2.00;99.90;;;;;;4995833;28;20081;-57
2021/04/13 07:16:02;;;;;;;26.75;17.63;;;2.10;99.90;;;;;;4992226;28;20077;-59
2021/04/13 07:18:47;;;;;;;34.72;20.42;;;2.30;99.90;;;;;;4989640;28;20037;-58
2021/04/13 07:21:23;;;;;;;30.38;19.15;;;2.00;99.90;;;;;;4981808;28;20171;-60
2021/04/13 07:24:19;;;;;;;28.48;17.88;;;2.00;99.90;;;;;;4993293;28;20062;-60
2021/04/13 07:26:53;;;;;;;32.15;20.10;;;2.10;99.90;;;;;;4961915;28;20065;-59
2021/04/13 07:29:24;;;;;;;29.02;18.40;;;2.20;99.90;;;;;;4997599;28;20029;-57
2021/04/13 07:32:03;;;;;;;31.67;19.38;;;2.30;99.90;;;;;;4993567;28;20169;-59
2021/04/13 07:34:31;;;;;;;29.42;18.58;;;2.30;99.90;;;;;;4990623;28;20104;-57
2021/04/13 07:37:06;;;;;;;31.65;21.23;;;2.20;99.90;;;;;;4994848;28;20026;-57
2021/04/13 07:39:33;;;;;;;35.10;20.98;;;2.00;99.90;;;;;;4987948;28;20567;-57
2021/04/13 07:42:08;;;;;;;32.45;21.35;;;2.10;99.90;;;;;;4996126;28;20101;-58
2021/04/13 07:44:39;;;;;;;29.83;19.38;;;2.40;99.90;;;;;;4998015;28;20042;-56
2021/04/13 07:47:17;;;;;;;32.17;20.42;;;2.50;99.90;;;;;;5003248;28;20041;-58
2021/04/13 07:49:56;;;;;;;32.58;21.10;;;2.60;99.90;;;;;;4995125;28;20018;-59
2021/04/13 07:52:44;;;;;;;33.03;21.00;;;2.80;99.90;;;;;;5010513;28;20109;-57
2021/04/13 07:55:30;;;;;;;34.60;21.45;;;2.90;99.90;;;;;;5002584;28;20030;-56
2021/04/13 07:57:56;;;;;;;30.88;19.50;;;3.00;99.90;;;;;;4990497;28;20070;-58
2021/04/13 08:00:26;;;;;;;37.05;21.10;;;3.30;99.90;;;;;;4997056;28;20428;-58
2021/04/13 08:03:07;;;;;;;38.88;22.38;;;3.20;99.90;;;;;;4993716;28;20061;-58
2021/04/13 08:05:42;;;;;;;31.92;21.65;;;3.20;99.90;;;;;;4999730;28;20073;-57
2021/04/13 08:08:29;;;;;;;37.10;22.67;;;3.00;99.90;;;;;;5002953;28;20022;-58
2021/04/13 08:11:17;;;;;;;34.97;21.98;;;2.90;99.90;;;;;;4984769;28;20042;-58
2021/04/13 08:13:46;;;;;;;39.33;22.80;;;3.10;99.90;;;;;;4994859;28;20443;-59
2021/04/13 08:16:38;;;;;;;35.08;22.05;;;3.40;99.90;;;;;;4996617;28;20044;-59
2021/04/13 08:19:14;;;;;;;27.75;20.23;;;3.70;99.90;;;;;;4999285;28;20081;-57
2021/04/13 08:21:41;;;;;;;39.35;20.13;;;4.20;99.90;;;;;;4997559;28;20048;-59
2021/04/13 08:24:31;;;;;;;32.45;20.95;;;4.10;99.90;;;;;;5002667;28;20113;-59
2021/04/13 08:27:09;;;;;;;29.55;19.75;;;4.40;99.90;;;;;;4996152;28;20105;-58
2021/04/13 08:29:49;;;;;;;32.88;21.65;;;4.60;99.90;;;;;;4990401;28;20030;-60
2021/04/13 08:35:57;;;;;;;32.75;20.98;;;4.60;99.90;;;;;;4997587;28;20045;-57
2021/04/13 08:38:39;;;;;;;32.40;22.50;;;4.80;99.90;;;;;;4947973;28;20054;-59
2021/04/13 08:41:23;;;;;;;29.85;20.27;;;5.10;99.90;;;;;;4989978;28;20172;-60
2021/04/13 08:44:10;;;;;;;27.73;18.30;;;5.30;99.90;;;;;;4989995;28;20439;-57
2021/04/13 08:47:02;;;;;;;24.33;18.00;;;6.60;99.90;;;;;;4997041;28;20088;-60
2021/04/13 08:49:41;;;;;;;29.60;19.77;;;7.60;99.90;;;;;;4993889;28;20084;-58
2021/04/13 08:52:15;;;;;;;28.92;19.88;;;7.80;99.90;;;;;;5008500;28;20037;-59
2021/04/13 08:54:44;;;;;;;28.35;19.42;;;8.90;99.90;;;;;;5002567;28;20389;-59
2021/04/13 08:57:21;;;;;;;27.90;20.17;;;9.50;99.90;;;;;;4995460;28;20025;-58
2021/04/13 08:59:52;;;;;;;30.08;18.88;;;9.60;99.90;;;;;;5002182;28;20113;-60
2021/04/13 09:02:33;;;;;;;27.25;18.40;;;10.10;99.90;;;;;;4994773;28;20491;-59
2021/04/13 09:05:22;;;;;;;25.10;19.08;;;10.20;99.90;;;;;;4995201;28;20066;-59
2021/04/13 09:07:48;;;;;;;23.42;19.20;;;10.70;99.90;;;;;;4990945;28;20117;-56
2021/04/13 09:10:33;;;;;;;25.75;18.27;;;10.40;99.90;;;;;;4983686;28;20042;-58
2021/04/13 09:13:26;;;;;;;27.58;18.70;;;10.70;99.90;;;;;;4996435;28;20023;-60
2021/04/13 09:16:06;;;;;;;25.10;19.08;;;10.10;99.90;;;;;;4992812;28;20014;-59
2021/04/13 09:18:44;;;;;;;25.55;18.45;;;9.70;99.90;;;;;;4999237;28;20014;-58
2021/04/13 09:21:28;;;;;;;23.33;18.10;;;9.90;99.90;;;;;;5003532;28;20053;-58
2021/04/13 09:24:36;;;;;;;29.67;19.00;;;9.40;99.90;;;;;;4996521;28;20034;-57
2021/04/13 09:27:26;;;;;;;29.27;19.60;;;9.30;99.90;;;;;;4988710;28;20073;-56
2021/04/13 09:29:54;;;;;;;24.52;17.42;;;9.20;99.90;;;;;;4994106;28;20031;-59
2021/04/13 09:32:23;;;;;;;26.75;17.15;;;9.20;99.90;;;;;;4997173;28;20037;-59
2021/04/13 09:35:12;;;;;;;24.27;18.20;;;8.60;99.90;;;;;;4993023;28;20023;-57
2021/04/13 09:37:57;;;;;;;23.80;13.15;;;9.10;99.90;;;;;;4989520;28;20033;-58
2021/04/13 09:41:09;;;;;;;19.77;11.05;;;9.20;99.90;;;;;;4987891;28;20057;-58
2021/04/13 09:44:04;;;;;;;19.27;11.25;;;8.70;99.90;;;;;;4980347;28;20038;-58
2021/04/13 09:46:49;;;;;;;17.98;9.95;;;9.10;99.90;;;;;;4980816;28;20046;-60
2021/04/13 09:49:33;;;;;;;14.88;7.88;;;10.50;99.90;;;;;;4990342;28;20671;-55
2021/04/13 09:52:08;;;;;;;16.73;7.32;;;11.00;97.70;;;;;;4992764;28;20105;-59
2021/04/13 09:54:40;;;;;;;19.20;8.02;;;11.50;96.60;;;;;;4999828;28;20087;-59
2021/04/13 09:57:33;;;;;;;16.10;6.97;;;12.10;94.60;;;;;;4995507;28;20029;-59
2021/04/13 10:00:24;;;;;;;11.38;5.93;;;12.60;93.00;;;;;;4999493;28;20066;-56
2021/04/13 10:03:31;;;;;;;12.63;5.90;;;12.10;94.20;;;;;;4997303;28;20026;-58
2021/04/13 10:06:00;;;;;;;13.30;4.70;;;12.10;93.70;;;;;;4982461;28;20050;-59
2021/04/13 10:08:38;;;;;;;13.75;4.45;;;11.90;90.30;;;;;;4997006;28;20041;-60
2021/04/13 10:11:06;;;;;;;11.07;4.22;;;11.50;90.80;;;;;;4982405;28;20078;-60
2021/04/13 10:14:10;;;;;;;9.93;4.00;;;11.20;92.00;;;;;;4997021;28;20415;-59
2021/04/13 10:16:53;;;;;;;8.68;3.33;;;11.00;90.50;;;;;;4996248;28;20026;-58
2021/04/13 10:19:18;;;;;;;8.00;4.35;;;11.10;86.10;;;;;;4988456;28;20093;-58
2021/04/13 10:22:14;;;;;;;17.15;5.70;;;10.80;90.50;;;;;;4994353;28;20117;-59
2021/04/13 10:25:12;;;;;;;11.15;4.30;;;10.70;94.00;;;;;;4982333;28;20027;-59
2021/04/13 10:27:58;;;;;;;10.40;4.32;;;10.30;94.90;;;;;;4993075;28;20026;-59
2021/04/13 10:30:43;;;;;;;14.77;4.55;;;9.90;94.80;;;;;;4995355;28;20034;-60
2021/04/13 10:33:33;;;;;;;14.20;4.88;;;9.50;95.60;;;;;;5000689;28;20026;-59
2021/04/13 10:36:44;;;;;;;9.60;4.10;;;8.80;97.30;;;;;;4990083;28;20026;-55
2021/04/13 10:39:48;;;;;;;8.75;3.90;;;8.40;97.00;;;;;;4992964;28;20028;-59
2021/04/13 10:42:33;;;;;;;13.15;3.85;;;8.40;97.60;;;;;;5000617;28;20041;-58
2021/04/13 10:45:16;;;;;;;;;;;8.70;96.60;;;;;;4994972;28;20129;-61
2021/04/13 10:48:17;;;;;;;15.30;4.78;;;8.70;97.50;;;;;;4997069;28;19909;-58
2021/04/13 10:50:57;;;;;;;9.35;3.78;;;8.80;99.40;;;;;;4989730;28;20054;-59
2021/04/13 10:54:09;;;;;;;10.00;4.00;;;9.40;98.00;;;;;;4994148;28;20030;-61
2021/04/13 10:56:43;;;;;;;15.13;4.20;;;9.70;96.00;;;;;;4990760;28;20026;-60
2021/04/13 10:59:46;;;;;;;13.30;4.00;;;9.30;96.20;;;;;;4990244;28;20029;-59
2021/04/13 11:02:27;;;;;;;13.90;4.60;;;9.90;95.50;;;;;;4989763;28;20029;-57
2021/04/13 11:05:27;;;;;;;9.07;3.42;;;10.20;95.20;;;;;;4989418;28;20125;-59
2021/04/13 11:08:15;;;;;;;9.15;3.10;;;10.60;91.60;;;;;;4986774;28;20050;-60
2021/04/13 11:11:18;;;;;;;13.73;3.08;;;10.50;88.80;;;;;;4935719;28;20054;-59
2021/04/13 11:14:17;;;;;;;7.10;2.75;;;10.40;90.80;;;;;;4994326;28;20026;-59
2021/04/13 11:17:20;;;;;;;11.20;3.03;;;10.30;90.00;;;;;;4994797;28;20116;-55
2021/04/13 11:19:57;;;;;;;10.68;3.30;;;10.10;91.70;;;;;;4999579;28;20041;-57
2021/04/13 11:22:50;;;;;;;8.70;2.50;;;10.30;91.00;;;;;;5001074;28;20033;-59
2021/04/13 11:25:53;;;;;;;11.80;3.35;;;10.10;89.70;;;;;;4997162;28;20030;-57
2021/04/13 11:28:37;;;;;;;10.35;3.22;;;10.30;90.50;;;;;;4997652;28;20023;-59
2021/04/13 11:31:19;;;;;;;11.05;3.70;;;10.20;91.60;;;;;;5004604;28;20022;-60
2021/04/13 11:34:14;;;;;;;8.75;2.97;;;10.20;89.70;;;;;;4994969;28;20030;-59
2021/04/13 11:36:58;;;;;;;8.32;2.50;;;10.40;86.50;;;;;;4980946;28;20045;-59
2021/04/13 11:39:28;;;;;;;11.30;3.38;;;10.90;89.90;;;;;;5001590;28;20035;-57
2021/04/13 11:42:08;;;;;;;10.60;3.53;;;10.50;90.40;;;;;;5001404;28;20537;-58
2021/04/13 11:45:12;;;;;;;8.52;2.88;;;10.40;85.90;;;;;;4996333;28;20033;-58
2021/04/13 11:47:40;;;;;;;8.40;3.42;;;10.50;90.40;;;;;;4998280;28;20022;-59
2021/04/13 11:50:08;;;;;;;10.57;3.15;;;10.60;90.20;;;;;;5001928;28;20031;-60
2021/04/13 11:52:56;;;;;;;12.25;3.67;;;10.60;93.30;;;;;;4979075;28;20473;-58
2021/04/13 11:55:28;;;;;;;11.30;3.83;;;10.90;92.60;;;;;;4988352;28;20045;-60
2021/04/13 11:58:10;;;;;;;11.85;4.03;;;11.30;92.60;;;;;;4987488;28;20069;-59
2021/04/13 12:00:36;;;;;;;9.65;3.35;;;11.00;91.40;;;;;;4995234;28;20651;-59
2021/04/13 12:03:07;;;;;;;7.97;3.33;;;11.10;88.30;;;;;;4989792;28;20030;-58
2021/04/13 12:05:32;;;;;;;9.85;3.33;;;11.10;90.50;;;;;;4990896;28;20050;-58
2021/04/13 12:08:00;;;;;;;6.60;3.03;;;10.70;89.70;;;;;;4996771;28;20474;-59
2021/04/13 12:10:32;;;;;;;10.73;3.33;;;10.90;89.50;;;;;;4982259;28;20045;-59
2021/04/13 12:13:08;;;;;;;10.20;2.80;;;11.00;91.00;;;;;;4986102;28;20018;-59
2021/04/13 12:15:46;;;;;;;11.00;2.90;;;10.70;90.80;;;;;;4989504;28;20038;-58
2021/04/13 12:18:36;;;;;;;7.07;2.55;;;10.70;89.90;;;;;;5001840;28;20113;-59
2021/04/13 12:21:23;;;;;;;5.00;1.77;;;10.70;79.80;;;;;;4986285;28;20585;-58
2021/04/13 12:23:53;;;;;;;6.00;1.63;;;10.70;76.60;;;;;;4996273;28;20042;-60
2021/04/13 12:26:43;;;;;;;5.18;1.63;;;10.70;83.10;;;;;;4992583;28;20042;-59
2021/04/13 12:29:29;;;;;;;7.82;1.95;;;10.90;73.80;;;;;;4983904;28;20049;-59
2021/04/13 12:32:13;;;;;;;6.47;2.00;;;10.90;74.90;;;;;;4990526;28;20077;-58
2021/04/13 12:34:44;;;;;;;7.93;2.67;;;10.80;70.90;;;;;;4996805;28;20033;-58
2021/04/13 12:37:36;;;;;;;6.28;1.75;;;10.70;69.40;;;;;;4996698;28;20030;-58
2021/04/13 12:40:20;;;;;;;8.73;2.22;;;11.00;71.70;;;;;;4999258;28;20690;-57
2021/04/13 12:42:52;;;;;;;6.03;2.13;;;11.00;68.10;;;;;;4999728;28;20505;-60
2021/04/13 12:45:21;;;;;;;4.85;1.90;;;10.90;69.80;;;;;;4994642;28;20105;-59
2021/04/13 12:48:09;;;;;;;3.15;1.02;;;11.20;72.80;;;;;;4999054;28;20076;-58
2021/04/13 12:50:38;;;;;;;4.38;1.20;;;10.70;68.20;;;;;;4984207;28;20026;-59
2021/04/13 12:53:12;;;;;;;8.30;1.20;;;10.20;72.10;;;;;;4985643;28;20488;-57
2021/04/13 12:55:38;;;;;;;3.03;1.13;;;9.70;75.00;;;;;;4986547;28;20404;-59
2021/04/13 12:58:15;;;;;;;2.25;0.80;;;9.40;85.60;;;;;;4998274;28;20089;-57
2021/04/13 13:00:48;;;;;;;1.95;0.75;;;9.40;87.90;;;;;;4994910;28;20518;-59
2021/04/13 13:03:30;;;;;;;2.47;1.23;;;9.30;90.30;;;;;;5000380;28;20038;-55
2021/04/13 13:05:56;;;;;;;2.67;1.00;;;9.40;91.00;;;;;;4994947;28;20022;-59
2021/04/13 13:08:27;;;;;;;1.95;1.02;;;9.30;89.30;;;;;;4998969;28;20038;-59
2021/04/13 13:10:56;;;;;;;2.90;1.10;;;9.40;90.60;;;;;;4987177;28;20050;-57
2021/04/13 13:13:27;;;;;;;3.95;1.10;;;9.30;81.90;;;;;;4995442;28;20018;-59
2021/04/13 13:15:53;;;;;;;4.20;1.17;;;9.40;76.20;;;;;;4980037;28;20783;-57
2021/04/13 13:18:21;;;;;;;2.25;1.00;;;9.40;87.00;;;;;;4974249;28;20031;-59
2021/04/13 13:21:02;;;;;;;3.83;1.30;;;9.30;90.30;;;;;;4976029;28;20033;-58
2021/04/13 13:23:35;;;;;;;4.32;1.02;;;9.10;92.20;;;;;;4974771;28;20019;-58
2021/04/13 13:26:13;;;;;;;6.50;1.52;;;8.50;94.60;;;;;;4977549;28;20724;-57